createdAt,value
2018-06-19T00:02:00.067Z,22.10
2018-06-19T00:04:28.187Z,22.10
2018-06-19T00:06:56.306Z,22.10
2018-06-19T00:09:24.420Z,22.10
2018-06-19T00:11:52.538Z,22.00
2018-06-19T00:14:20.635Z,22.00
2018-06-19T00:16:48.780Z,22.00
2018-06-19T00:19:16.883Z,22.00
2018-06-19T00:21:47.638Z,21.90
2018-06-19T00:24:15.762Z,21.90
2018-06-19T00:26:43.861Z,21.90
2018-06-19T00:29:11.967Z,21.80
2018-06-19T00:31:40.076Z,21.80
2018-06-19T00:34:08.182Z,21.80
2018-06-19T00:36:36.335Z,21.70
2018-06-19T00:39:07.074Z,21.70
2018-06-19T00:41:35.340Z,21.70
2018-06-19T00:44:03.519Z,21.60
2018-06-19T00:46:32.495Z,21.60
2018-06-19T00:49:00.875Z,21.50
2018-06-19T00:53:56.890Z,21.40
2018-06-19T00:56:36.585Z,21.40
2018-06-19T00:59:04.593Z,21.30
2018-06-19T01:01:32.679Z,21.20
2018-06-19T01:04:00.770Z,21.20
2018-06-19T01:06:28.850Z,21.20
2018-06-19T01:08:56.898Z,21.10
2018-06-19T01:11:24.979Z,21.10
2018-06-19T01:13:53.076Z,21.10
2018-06-19T01:16:21.166Z,21.00
2018-06-19T01:18:49.263Z,20.90
2018-06-19T01:21:17.318Z,20.90
2018-06-19T01:23:45.402Z,20.90
2018-06-19T01:26:13.493Z,20.80
2018-06-19T01:28:41.564Z,20.80
2018-06-19T01:31:09.641Z,20.70
2018-06-19T01:33:37.755Z,20.80
2018-06-19T01:36:05.847Z,20.70
2018-06-19T01:38:33.995Z,20.70
2018-06-19T01:41:02.079Z,20.60
2018-06-19T01:43:30.182Z,20.60
2018-06-19T01:48:26.127Z,20.50
2018-06-19T01:50:54.495Z,20.40
2018-06-19T01:53:22.598Z,20.40
2018-06-19T01:55:50.702Z,20.30
2018-06-19T01:58:18.803Z,20.30
2018-06-19T02:00:46.921Z,20.30
2018-06-19T02:03:14.975Z,20.30
2018-06-19T02:05:43.066Z,20.30
2018-06-19T02:08:11.154Z,20.30
2018-06-19T02:13:07.167Z,20.20
2018-06-19T02:15:35.256Z,20.20
2018-06-19T02:18:03.343Z,20.20
2018-06-19T02:20:31.411Z,20.10
2018-06-19T02:22:59.522Z,20.10
2018-06-19T02:25:27.615Z,20.10
2018-06-19T02:30:23.534Z,20.00
2018-06-19T02:32:51.615Z,20.00
2018-06-19T02:37:47.833Z,20.00
2018-06-19T02:40:16.004Z,20.00
2018-06-19T02:45:11.960Z,20.00
2018-06-19T02:47:40.032Z,20.00
2018-06-19T02:50:08.114Z,20.00
2018-06-19T02:52:36.293Z,20.00
2018-06-19T02:55:04.573Z,20.00
2018-06-19T02:57:32.698Z,20.00
2018-06-19T03:00:00.846Z,20.00
2018-06-19T03:02:29.016Z,20.00
2018-06-19T03:04:57.161Z,20.00
2018-06-19T03:07:25.293Z,20.00
2018-06-19T03:09:53.400Z,20.00
2018-06-19T03:12:21.517Z,20.00
2018-06-19T03:14:49.648Z,20.00
2018-06-19T03:17:17.792Z,20.00
2018-06-19T03:19:45.905Z,20.00
2018-06-19T03:22:14.023Z,20.10
2018-06-19T03:24:42.143Z,20.10
2018-06-19T03:27:10.260Z,20.10
2018-06-19T03:32:06.432Z,20.10
2018-06-19T03:34:34.576Z,20.00
2018-06-19T03:37:02.696Z,20.00
2018-06-19T03:39:30.833Z,20.00
2018-06-19T03:41:58.936Z,20.00
2018-06-19T03:44:27.059Z,20.00
2018-06-19T03:46:55.180Z,20.00
2018-06-19T03:49:23.328Z,20.00
2018-06-19T03:51:51.453Z,20.00
2018-06-19T03:54:19.597Z,20.00
2018-06-19T03:56:47.704Z,20.00
2018-06-19T03:59:15.850Z,20.00
2018-06-19T04:01:43.977Z,20.00
2018-06-19T04:04:12.096Z,20.10
2018-06-19T04:06:40.233Z,20.00
2018-06-19T04:11:36.581Z,20.10
2018-06-19T04:14:04.741Z,20.10
2018-06-19T04:16:32.881Z,20.10
2018-06-19T04:19:01.025Z,20.10
2018-06-19T04:23:57.133Z,20.10
2018-06-19T04:26:25.240Z,20.10
2018-06-19T04:28:53.387Z,20.10
2018-06-19T04:31:21.540Z,20.10
2018-06-19T04:33:49.698Z,20.10
2018-06-19T04:36:17.848Z,20.10
2018-06-19T04:38:46.080Z,20.10
2018-06-19T04:41:14.212Z,20.10
2018-06-19T04:43:42.472Z,20.10
2018-06-19T04:46:10.590Z,20.10
2018-06-19T04:48:38.712Z,20.10
2018-06-19T04:51:06.852Z,20.10
2018-06-19T04:53:34.988Z,20.20
2018-06-19T04:56:03.118Z,20.10
2018-06-19T04:58:31.627Z,20.20
2018-06-19T05:00:59.777Z,20.10
2018-06-19T05:03:27.913Z,20.20
2018-06-19T05:05:56.072Z,20.20
2018-06-19T05:08:24.194Z,20.20
2018-06-19T05:13:20.228Z,20.20
2018-06-19T05:15:48.364Z,20.20
2018-06-19T05:18:16.465Z,20.30
2018-06-19T05:20:44.609Z,20.20
2018-06-19T05:23:12.733Z,20.20
2018-06-19T05:25:40.873Z,20.20
2018-06-19T05:28:08.992Z,20.20
2018-06-19T05:30:37.113Z,20.20
2018-06-19T05:33:05.408Z,20.30
2018-06-19T05:35:33.528Z,20.30
2018-06-19T05:38:01.682Z,20.30
2018-06-19T05:40:29.837Z,20.30
2018-06-19T05:42:57.959Z,20.30
2018-06-19T05:47:54.056Z,20.30
2018-06-19T05:50:22.144Z,20.30
2018-06-19T05:57:46.105Z,20.40
2018-06-19T06:00:14.269Z,20.40
2018-06-19T06:02:42.350Z,20.50
2018-06-19T06:05:10.479Z,20.50
2018-06-19T06:07:38.625Z,20.50
2018-06-19T06:10:06.752Z,20.50
2018-06-19T06:12:34.869Z,20.60
2018-06-19T06:15:03.012Z,20.60
2018-06-19T06:17:31.141Z,20.60
2018-06-19T06:19:59.265Z,20.70
2018-06-19T06:22:27.414Z,20.70
2018-06-19T06:24:55.700Z,20.70
2018-06-19T06:27:23.841Z,20.80
2018-06-19T06:29:51.989Z,20.80
2018-06-19T06:32:20.157Z,20.80
2018-06-19T06:34:48.304Z,20.80
2018-06-19T06:37:16.425Z,20.90
2018-06-19T06:39:44.557Z,21.00
2018-06-19T06:42:12.713Z,21.00
2018-06-19T06:44:40.827Z,21.10
2018-06-19T06:47:09.209Z,21.10
2018-06-19T06:49:37.345Z,21.10
2018-06-19T06:52:05.754Z,21.20
2018-06-19T06:54:33.872Z,21.20
2018-06-19T06:57:02.284Z,21.30
2018-06-19T06:59:31.216Z,21.40
2018-06-19T07:04:27.614Z,21.40
2018-06-19T07:06:55.723Z,21.50
2018-06-19T07:09:23.850Z,21.50
2018-06-19T07:11:51.974Z,21.50
2018-06-19T07:14:20.141Z,21.60
2018-06-19T07:16:48.245Z,21.60
2018-06-19T07:19:16.366Z,21.70
2018-06-19T07:21:44.613Z,21.70
2018-06-19T07:24:12.907Z,21.80
2018-06-19T07:26:41.071Z,21.80
2018-06-19T07:29:09.171Z,21.90
2018-06-19T07:31:37.276Z,21.90
2018-06-19T07:34:05.382Z,22.00
2018-06-19T07:36:33.490Z,22.10
2018-06-19T07:39:01.802Z,22.20
2018-06-19T07:41:29.932Z,22.30
2018-06-19T07:43:58.093Z,22.30
2018-06-19T07:46:26.194Z,22.40
2018-06-19T07:48:54.517Z,22.40
2018-06-19T07:51:22.650Z,22.50
2018-06-19T07:53:50.782Z,22.60
2018-06-19T07:56:18.910Z,22.60
2018-06-19T07:58:47.030Z,22.70
2018-06-19T08:01:15.129Z,22.70
2018-06-19T08:03:43.264Z,22.80
2018-06-19T08:06:12.434Z,22.90
2018-06-19T08:08:40.561Z,22.90
2018-06-19T08:11:08.684Z,23.00
2018-06-19T08:13:36.949Z,23.00
2018-06-19T08:16:04.972Z,23.10
2018-06-19T08:18:33.084Z,23.20
2018-06-19T08:21:01.212Z,23.20
2018-06-19T08:23:29.359Z,23.30
2018-06-19T08:25:57.480Z,23.40
2018-06-19T08:28:25.629Z,23.50
2018-06-19T08:30:53.736Z,23.50
2018-06-19T08:33:21.828Z,23.60
2018-06-19T08:35:49.948Z,23.70
2018-06-19T08:38:18.066Z,23.80
2018-06-19T08:40:46.216Z,23.90
2018-06-19T08:43:14.433Z,24.00
2018-06-19T08:45:42.598Z,24.10
2018-06-19T08:48:10.713Z,24.10
2018-06-19T08:50:38.849Z,24.20
2018-06-19T08:53:07.028Z,24.30
2018-06-19T08:55:35.237Z,24.40
2018-06-19T08:58:03.569Z,24.40
2018-06-19T09:00:31.684Z,24.40
2018-06-19T09:02:59.820Z,24.50
2018-06-19T09:05:27.945Z,24.50
2018-06-19T09:07:56.065Z,24.50
2018-06-19T09:15:20.117Z,24.40
2018-06-19T09:17:48.264Z,24.40
2018-06-19T09:20:16.404Z,24.40
2018-06-19T09:22:44.546Z,24.30
2018-06-19T09:25:12.657Z,24.30
2018-06-19T09:30:08.720Z,24.30
2018-06-19T09:32:36.839Z,24.30
2018-06-19T09:35:05.018Z,24.30
2018-06-19T09:37:33.141Z,24.30
2018-06-19T09:40:01.274Z,24.30
2018-06-19T09:42:29.404Z,24.30
2018-06-19T09:44:57.531Z,24.30
2018-06-19T09:47:25.662Z,24.30
2018-06-19T09:49:53.781Z,24.30
2018-06-19T09:52:21.904Z,24.40
2018-06-19T09:54:50.041Z,24.40
2018-06-19T09:57:18.172Z,24.50
2018-06-19T09:59:46.296Z,24.50
2018-06-19T10:02:14.654Z,24.60
2018-06-19T10:04:42.813Z,24.60
2018-06-19T10:09:38.852Z,24.80
2018-06-19T10:12:07.018Z,24.80
2018-06-19T10:14:35.109Z,24.90
2018-06-19T10:17:03.224Z,24.90
2018-06-19T10:19:31.361Z,25.00
2018-06-19T10:21:59.558Z,25.00
2018-06-19T10:24:27.693Z,25.10
2018-06-19T10:29:23.749Z,25.10
2018-06-19T10:31:51.868Z,25.10
2018-06-19T10:34:19.989Z,25.10
2018-06-19T10:36:48.121Z,25.10
2018-06-19T10:39:16.288Z,25.10
2018-06-19T10:44:12.342Z,25.10
2018-06-19T10:46:40.448Z,25.10
2018-06-19T10:49:08.581Z,25.20
2018-06-19T10:51:36.684Z,25.20
2018-06-19T10:54:05.041Z,25.20
2018-06-19T10:56:33.236Z,25.20
2018-06-19T10:59:01.527Z,25.30
2018-06-19T11:01:29.500Z,25.30
2018-06-19T11:03:57.641Z,25.40
2018-06-19T11:06:25.800Z,25.40
2018-06-19T11:08:53.917Z,25.50
2018-06-19T11:11:22.034Z,25.50
2018-06-19T11:13:50.164Z,25.60
2018-06-19T11:16:18.304Z,25.70
2018-06-19T11:18:46.422Z,25.80
2018-06-19T11:21:14.552Z,25.80
2018-06-19T11:23:42.694Z,25.90
2018-06-19T11:26:10.905Z,25.90
2018-06-19T11:28:39.042Z,26.00
2018-06-19T11:31:07.212Z,26.00
2018-06-19T11:33:35.333Z,26.10
2018-06-19T11:36:03.463Z,26.10
2018-06-19T11:38:31.598Z,26.10
2018-06-19T11:40:59.717Z,26.10
2018-06-19T11:43:27.872Z,26.10
2018-06-19T11:45:55.983Z,26.10
2018-06-19T11:48:24.126Z,26.20
2018-06-19T11:55:48.340Z,26.30
2018-06-19T11:58:16.468Z,26.30
2018-06-19T12:00:44.589Z,26.40
2018-06-19T12:03:12.705Z,26.40
2018-06-19T12:08:08.788Z,26.50
2018-06-19T12:10:36.877Z,26.60
2018-06-19T12:13:04.995Z,26.70
2018-06-19T12:15:33.133Z,26.70
2018-06-19T12:18:01.272Z,26.70
2018-06-19T12:20:29.489Z,26.80
2018-06-19T12:22:57.614Z,26.80
2018-06-19T12:25:25.744Z,26.80
2018-06-19T12:27:53.954Z,26.90
2018-06-19T12:30:22.104Z,26.80
2018-06-19T12:32:50.209Z,26.90
2018-06-19T12:35:18.329Z,26.90
2018-06-19T12:37:47.480Z,26.90
2018-06-19T12:40:15.606Z,26.80
2018-06-19T12:42:43.733Z,26.80
2018-06-19T12:45:11.933Z,26.80
2018-06-19T12:47:40.070Z,26.70
2018-06-19T12:52:22.760Z,26.70
2018-06-19T12:55:32.700Z,26.70
2018-06-19T12:58:00.809Z,26.50
2018-06-19T13:00:28.935Z,26.50
2018-06-19T13:03:08.621Z,26.50
2018-06-19T13:05:48.242Z,26.50
2018-06-19T13:08:16.353Z,26.50
2018-06-19T13:10:44.480Z,26.60
2018-06-19T13:13:25.464Z,26.70
2018-06-19T13:15:54.261Z,26.70
2018-06-19T13:18:35.086Z,26.80
2018-06-19T13:21:03.208Z,26.90
2018-06-19T13:23:31.810Z,27.00
2018-06-19T13:26:00.260Z,27.10
2018-06-19T13:28:40.474Z,27.10
2018-06-19T13:31:20.240Z,27.10
2018-06-19T13:33:48.350Z,27.10
2018-06-19T13:36:16.632Z,27.10
2018-06-19T13:38:44.739Z,27.00
2018-06-19T13:41:25.532Z,27.00
2018-06-19T13:44:06.843Z,27.00
2018-06-19T13:46:34.977Z,27.00
2018-06-19T13:49:03.105Z,27.10
2018-06-19T13:51:31.222Z,27.10
2018-06-19T13:53:59.360Z,27.10
2018-06-19T13:57:37.288Z,27.20
2018-06-19T14:00:07.733Z,27.20
2018-06-19T14:02:35.898Z,27.20
2018-06-19T14:05:04.637Z,27.20
2018-06-19T14:07:37.130Z,27.20
2018-06-19T14:10:21.127Z,27.30
2018-06-19T14:12:58.222Z,27.30
2018-06-19T14:15:27.333Z,27.30
2018-06-19T14:17:55.504Z,27.20
2018-06-19T14:20:23.694Z,27.20
2018-06-19T14:25:20.217Z,27.20
2018-06-19T14:27:48.342Z,27.20
2018-06-19T14:32:51.192Z,27.10
2018-06-19T14:35:19.425Z,27.10
2018-06-19T14:37:47.589Z,27.10
2018-06-19T14:40:16.113Z,27.10
2018-06-19T14:42:44.225Z,27.00
2018-06-19T14:45:12.701Z,27.00
2018-06-19T14:47:41.155Z,27.00
2018-06-19T14:50:09.247Z,27.00
2018-06-19T14:52:37.408Z,27.00
2018-06-19T14:55:06.189Z,26.90
2018-06-19T14:57:34.351Z,27.00
2018-06-19T15:00:02.468Z,27.00
2018-06-19T15:02:30.599Z,26.90
2018-06-19T15:04:58.725Z,26.90
2018-06-19T15:07:31.099Z,26.80
2018-06-19T15:09:59.291Z,26.70
2018-06-19T15:12:27.387Z,26.60
2018-06-19T15:14:55.520Z,26.50
2018-06-19T15:17:23.609Z,26.40
2018-06-19T15:19:51.749Z,26.30
2018-06-19T15:22:19.870Z,26.20
2018-06-19T15:24:48.013Z,26.20
2018-06-19T15:27:16.142Z,26.10
2018-06-19T15:29:44.297Z,26.10
2018-06-19T15:32:12.356Z,26.00
2018-06-19T15:34:40.504Z,25.90
2018-06-19T15:37:08.639Z,25.90
2018-06-19T15:39:36.785Z,25.90
2018-06-19T15:42:04.916Z,25.90
2018-06-19T15:47:01.009Z,25.90
2018-06-19T15:51:57.042Z,25.90
2018-06-19T15:54:25.160Z,26.00
2018-06-19T15:56:53.305Z,26.00
2018-06-19T15:59:21.451Z,26.10
2018-06-19T16:01:49.590Z,26.10
2018-06-19T16:04:24.093Z,26.10
2018-06-19T16:06:52.366Z,26.20
2018-06-19T16:09:20.470Z,26.10
2018-06-19T16:11:48.681Z,26.20
2018-06-19T16:14:16.893Z,26.20
2018-06-19T16:16:45.026Z,26.10
2018-06-19T16:19:13.142Z,26.10
2018-06-19T16:21:41.249Z,26.10
2018-06-19T16:24:09.393Z,26.10
2018-06-19T16:26:37.529Z,26.10
2018-06-19T16:29:05.637Z,26.10
2018-06-19T16:31:33.737Z,26.00
2018-06-19T16:34:01.865Z,26.00
2018-06-19T16:36:29.996Z,26.00
2018-06-19T16:38:58.113Z,26.00
2018-06-19T16:41:26.252Z,26.00
2018-06-19T16:46:22.305Z,26.00
2018-06-19T16:48:50.498Z,25.90
2018-06-19T16:51:18.608Z,25.90
2018-06-19T16:53:46.821Z,25.80
2018-06-19T16:56:14.876Z,25.80
2018-06-19T16:58:43.000Z,25.80
2018-06-19T17:01:11.117Z,25.70
2018-06-19T17:03:39.251Z,25.70
2018-06-19T17:06:07.349Z,25.70
2018-06-19T17:08:35.477Z,25.60
2018-06-19T17:11:03.573Z,25.60
2018-06-19T17:13:31.706Z,25.60
2018-06-19T17:15:59.834Z,25.60
2018-06-19T17:18:28.033Z,25.60
2018-06-19T17:20:56.193Z,25.50
2018-06-19T17:23:24.326Z,25.50
2018-06-19T17:25:52.446Z,25.50
2018-06-19T17:28:20.556Z,25.50
2018-06-19T17:30:48.693Z,25.50
2018-06-19T17:33:16.827Z,25.50
2018-06-19T17:35:44.945Z,25.40
2018-06-19T17:38:13.070Z,25.40
2018-06-19T17:40:41.239Z,25.40
2018-06-19T17:43:09.325Z,25.40
2018-06-19T17:45:37.490Z,25.40
2018-06-19T17:48:05.632Z,25.30
2018-06-19T17:50:33.721Z,25.30
2018-06-19T17:53:01.843Z,25.40
2018-06-19T17:55:29.989Z,25.30
2018-06-19T17:57:58.759Z,25.30
2018-06-19T18:02:54.931Z,25.30
2018-06-19T18:05:23.318Z,25.30
2018-06-19T18:07:51.608Z,25.30
2018-06-19T18:10:19.726Z,25.30
2018-06-19T18:12:47.837Z,25.20
2018-06-19T18:22:39.647Z,25.10
2018-06-19T18:25:07.774Z,25.10
2018-06-19T18:27:35.909Z,25.10
2018-06-19T18:30:04.066Z,25.10
2018-06-19T18:32:32.168Z,25.10
2018-06-19T18:35:00.341Z,25.10
2018-06-19T18:37:28.470Z,25.00
2018-06-19T18:39:56.635Z,25.10
2018-06-19T18:42:24.878Z,25.00
2018-06-19T18:44:53.007Z,25.00
2018-06-19T18:49:49.050Z,25.00
2018-06-19T18:52:17.225Z,25.00
2018-06-19T18:54:45.363Z,25.00
2018-06-19T18:57:13.477Z,25.00
2018-06-19T18:59:41.589Z,25.00
2018-06-19T19:04:37.637Z,24.90
2018-06-19T19:07:05.753Z,24.80
2018-06-19T19:09:33.925Z,24.80
2018-06-19T19:12:02.026Z,24.80
2018-06-19T19:14:34.400Z,24.70
2018-06-19T19:18:06.544Z,24.70
2018-06-19T19:20:34.668Z,24.60
2018-06-19T19:23:02.797Z,24.60
2018-06-19T19:25:31.453Z,24.50
2018-06-19T19:28:04.964Z,24.50
2018-06-19T19:30:33.089Z,24.40
2018-06-19T19:33:01.338Z,24.40
2018-06-19T19:35:29.540Z,24.40
2018-06-19T19:38:03.065Z,24.30
2018-06-19T19:40:31.208Z,24.30
2018-06-19T19:42:59.405Z,24.20
2018-06-19T19:45:27.504Z,24.20
2018-06-19T19:48:01.142Z,24.10
2018-06-19T19:50:29.274Z,24.10
2018-06-19T19:52:57.381Z,24.00
2018-06-19T19:55:25.492Z,23.90
2018-06-19T19:57:59.236Z,23.80
2018-06-19T20:00:27.543Z,23.80
2018-06-19T20:02:56.468Z,23.70
2018-06-19T20:05:24.873Z,23.70
2018-06-19T20:07:52.997Z,23.60
2018-06-19T20:12:49.069Z,23.50
2018-06-19T20:15:17.284Z,23.40
2018-06-19T20:17:45.433Z,23.30
2018-06-19T20:22:41.460Z,23.20
2018-06-19T20:25:10.115Z,23.10
2018-06-19T20:27:38.358Z,23.10
2018-06-19T20:30:07.485Z,23.00
2018-06-19T20:32:35.618Z,23.00
2018-06-19T20:37:31.621Z,22.90
2018-06-19T20:39:59.746Z,22.90
2018-06-19T20:42:27.872Z,22.80
2018-06-19T20:44:56.009Z,22.80
2018-06-19T20:47:24.133Z,22.90
2018-06-19T20:49:52.241Z,22.80
2018-06-19T20:52:20.372Z,22.70
2018-06-19T20:54:48.497Z,22.70
2018-06-19T20:57:16.666Z,22.70
2018-06-19T20:59:44.782Z,22.70
2018-06-19T21:02:12.896Z,22.60
2018-06-19T21:04:41.019Z,22.60
2018-06-19T21:07:09.263Z,22.60
2018-06-19T21:09:37.385Z,22.60
2018-06-19T21:12:05.509Z,22.60
2018-06-19T21:14:33.664Z,22.60
2018-06-19T21:19:30.025Z,22.50
2018-06-19T21:21:58.134Z,22.50
2018-06-19T21:24:26.301Z,22.40
2018-06-19T21:26:54.444Z,22.40
2018-06-19T21:29:22.569Z,22.30
2018-06-19T21:31:50.693Z,22.30
2018-06-19T21:34:18.838Z,22.30
2018-06-19T21:36:46.993Z,22.30
2018-06-19T21:39:15.088Z,22.30
2018-06-19T21:41:43.300Z,22.30
2018-06-19T21:44:11.416Z,22.20
2018-06-19T21:46:39.525Z,22.20
2018-06-19T21:49:08.472Z,22.20
2018-06-19T21:54:04.532Z,22.00
2018-06-19T21:56:32.664Z,22.00
2018-06-19T21:59:01.684Z,21.90
2018-06-19T22:01:29.855Z,21.90
2018-06-19T22:03:57.957Z,22.00
2018-06-19T22:06:26.081Z,21.90
2018-06-19T22:08:54.534Z,21.90
2018-06-19T22:11:23.987Z,21.80
2018-06-19T22:13:52.274Z,21.80
2018-06-19T22:16:20.413Z,21.80
2018-06-19T22:18:48.661Z,21.80
2018-06-19T22:21:16.775Z,21.80
2018-06-19T22:23:45.183Z,21.80
2018-06-19T22:26:13.314Z,21.80
2018-06-19T22:28:41.420Z,21.80
2018-06-19T22:31:09.549Z,21.80
2018-06-19T22:33:37.664Z,21.80
2018-06-19T22:36:05.785Z,21.80
2018-06-19T22:43:29.832Z,21.60
2018-06-19T22:45:57.980Z,21.60
2018-06-19T22:48:26.076Z,21.60
2018-06-19T22:50:54.244Z,21.50
2018-06-19T22:53:22.352Z,21.50
2018-06-19T22:55:50.503Z,21.50
2018-06-19T22:58:18.734Z,21.50
2018-06-19T23:00:46.873Z,21.50
2018-06-19T23:03:14.997Z,21.50
2018-06-19T23:05:43.124Z,21.50
2018-06-19T23:08:11.286Z,21.50
2018-06-19T23:10:39.405Z,21.50
2018-06-19T23:13:07.536Z,21.40
2018-06-19T23:15:35.650Z,21.40
2018-06-19T23:20:31.682Z,21.30
2018-06-19T23:22:59.824Z,21.30
2018-06-19T23:25:27.949Z,21.20
2018-06-19T23:32:51.854Z,21.20
2018-06-19T23:35:20.001Z,21.20
2018-06-19T23:37:48.099Z,21.20
2018-06-19T23:40:16.264Z,21.20
2018-06-19T23:42:44.400Z,21.20
2018-06-19T23:45:12.517Z,21.20
2018-06-19T23:47:40.665Z,21.20
2018-06-19T23:50:08.811Z,21.20
2018-06-19T23:55:11.737Z,21.10
2018-06-19T23:57:39.834Z,21.10
